Time;durP1;ratioP1;P1;durP2;ratioP2;P2;SDS_P1;SDS_P2;PMS_P1;PMS_P2;Temp;Humidity;BMP_temperature;BMP_pressure;BME280_temperature;BME280_humidity;BME280_pressure;Samples;Min_cycle;Max_cycle;Signal;HPM_P1;HPM_P2
2023/04/02 00:01:35;;;;;;;7.05;6.00;;;;;;;7.65;100.00;100671.53;4885173;29;20055;-77
2023/04/02 00:04:14;;;;;;;5.32;4.82;;;;;;;7.39;100.00;100668.75;4883850;29;20509;-77
2023/04/02 00:06:44;;;;;;;6.88;5.15;;;;;;;7.31;100.00;100668.41;4900464;29;20060;-78
2023/04/02 00:09:12;;;;;;;6.78;4.90;;;;;;;7.43;100.00;100681.19;4922168;29;20036;-78
2023/04/02 00:11:39;;;;;;;5.85;4.85;;;;;;;7.39;100.00;100687.81;4908863;29;20040;-77
2023/04/02 00:14:15;;;;;;;5.53;4.57;;;;;;;7.43;100.00;100694.81;4900104;29;20035;-76
2023/04/02 00:16:40;;;;;;;4.60;4.20;;;;;;;7.39;100.00;100692.41;4887674;29;20032;-77
2023/04/02 00:19:14;;;;;;;4.93;4.43;;;;;;;7.45;100.00;100698.28;4887597;29;20520;-77
2023/04/02 00:21:43;;;;;;;4.75;4.32;;;;;;;7.35;100.00;100695.34;4919333;29;20135;-77
2023/04/02 00:24:20;;;;;;;6.40;4.40;;;;;;;7.51;100.00;100711.50;4919459;29;20136;-77
2023/04/02 00:26:49;;;;;;;4.65;4.25;;;;;;;7.71;100.00;100714.72;4918111;29;20135;-77
2023/04/02 00:29:16;;;;;;;6.60;5.10;;;;;;;7.61;100.00;100713.56;4919243;29;20032;-77
2023/04/02 00:31:46;;;;;;;5.70;4.50;;;;;;;7.57;100.00;100704.75;4901514;29;20036;-77
2023/04/02 00:34:26;;;;;;;4.53;4.10;;;;;;;7.42;100.00;100722.16;4933166;29;20066;-77
2023/04/02 00:36:52;;;;;;;4.00;3.63;;;;;;;7.39;100.00;100717.78;4896951;29;20036;-79
2023/04/02 00:39:37;;;;;;;3.85;3.17;;;;;;;7.50;100.00;100725.22;4883059;29;20032;-79
2023/04/02 00:42:05;;;;;;;3.38;3.13;;;;;;;7.37;100.00;100733.34;4901612;29;20036;-78
2023/04/02 00:44:42;;;;;;;4.20;3.80;;;;;;;7.33;100.00;100732.69;4889708;28;20122;-79
2023/04/02 00:47:21;;;;;;;4.20;3.75;;;;;;;7.43;100.00;100740.22;4916840;29;20112;-77
2023/04/02 00:49:53;;;;;;;4.60;4.20;;;;;;;7.45;100.00;100743.75;4905363;29;20040;-78
2023/04/02 00:52:23;;;;;;;6.50;4.75;;;;;;;7.61;100.00;100749.88;4917536;29;20159;-78
2023/04/02 00:54:52;;;;;;;7.72;4.93;;;;;;;7.70;100.00;100753.81;4913027;29;20039;-77
2023/04/02 00:57:24;;;;;;;6.05;4.32;;;;;;;7.75;100.00;100757.09;4933033;29;20040;-79
2023/04/02 01:00:20;;;;;;;5.25;4.80;;;;;;;7.57;100.00;100759.22;4916893;29;20068;-78
2023/04/02 01:03:39;;;;;;;7.90;4.10;;;;;;;7.39;100.00;100766.81;4920047;29;20040;-77
2023/04/02 01:06:09;;;;;;;7.07;5.20;;;;;;;7.26;100.00;100779.50;4901917;29;20055;-78
2023/04/02 01:09:14;;;;;;;6.05;4.65;;;;;;;7.39;100.00;100774.97;4926255;29;20040;-79
2023/04/02 01:12:08;;;;;;;8.15;5.03;;;;;;;7.28;100.00;100786.59;4898609;29;20043;-78
2023/04/02 01:14:40;;;;;;;;;;;;;;;7.22;100.00;100787.00;4915512;29;20059;-78
2023/04/02 01:17:31;;;;;;;6.13;4.47;;;;;;;7.21;100.00;100789.84;4901089;29;19922;-77
2023/04/02 01:20:15;;;;;;;6.22;5.00;;;;;;;7.31;100.00;100799.13;4900120;29;20128;-78
2023/04/02 01:22:49;;;;;;;7.38;4.63;;;;;;;7.27;100.00;100800.31;4917596;29;20064;-79
2023/04/02 01:25:27;;;;;;;6.43;5.07;;;;;;;7.18;100.00;100805.41;4932780;29;20040;-78
2023/04/02 01:28:19;;;;;;;5.40;4.82;;;;;;;7.17;100.00;100811.81;4895934;29;20099;-78
2023/04/02 01:30:53;;;;;;;6.35;5.10;;;;;;;7.14;100.00;100812.00;4917339;29;20480;-77
2023/04/02 01:33:22;;;;;;;5.88;4.25;;;;;;;7.11;100.00;100820.38;4900175;29;20063;-78
2023/04/02 01:35:57;;;;;;;7.00;5.15;;;;;;;7.02;100.00;100818.28;4928245;29;20046;-77
2023/04/02 01:38:31;;;;;;;8.75;5.05;;;;;;;7.04;100.00;100816.31;4908819;29;20043;-77
2023/04/02 01:41:15;;;;;;;4.22;3.83;;;;;;;6.93;100.00;100836.06;4889764;29;20042;-78
2023/04/02 01:43:48;;;;;;;4.90;3.45;;;;;;;6.93;100.00;100832.47;4903212;29;20042;-78
2023/04/02 01:46:46;;;;;;;3.97;3.60;;;;;;;6.78;100.00;100829.75;4899235;29;20500;-78
2023/04/02 01:49:21;;;;;;;6.00;3.47;;;;;;;6.89;100.00;100844.53;4880455;29;20098;-78
2023/04/02 01:51:52;;;;;;;5.75;3.55;;;;;;;6.89;100.00;100847.25;4896524;29;20032;-77
2023/04/02 01:54:20;;;;;;;4.18;3.22;;;;;;;6.70;100.00;100842.97;4903530;29;20028;-77
2023/04/02 01:56:46;;;;;;;6.13;3.25;;;;;;;6.79;100.00;100855.13;4882988;29;20031;-78
2023/04/02 01:59:15;;;;;;;4.82;3.17;;;;;;;6.74;100.00;100849.97;4884816;29;20036;-78
2023/04/02 02:01:53;;;;;;;3.67;3.08;;;;;;;6.60;100.00;100852.69;4900262;29;20526;-78
2023/04/02 02:04:18;;;;;;;3.67;2.50;;;;;;;6.65;100.00;100852.41;4900706;29;20036;-78
2023/04/02 02:06:45;;;;;;;3.75;3.10;;;;;;;6.73;100.00;100871.84;4931153;29;20027;-79
2023/04/02 02:09:20;;;;;;;4.75;3.63;;;;;;;6.70;100.00;100877.47;4916091;29;20036;-78
2023/04/02 02:11:47;;;;;;;3.65;3.20;;;;;;;6.72;100.00;100878.25;4885343;29;20147;-78
2023/04/02 02:14:19;;;;;;;4.93;4.00;;;;;;;6.73;100.00;100890.88;4885599;29;20087;-80
2023/04/02 02:16:46;;;;;;;6.07;3.70;;;;;;;6.70;100.00;100897.38;4899090;29;20036;-78
2023/04/02 02:19:35;;;;;;;5.30;4.22;;;;;;;6.62;100.00;100889.72;4910130;29;20091;-79
2023/04/02 02:22:13;;;;;;;5.90;4.05;;;;;;;6.66;100.00;100906.72;4866479;29;20554;-78
2023/04/02 02:24:39;;;;;;;5.95;4.43;;;;;;;6.57;100.00;100899.13;4928160;29;20038;-78
2023/04/02 02:27:23;;;;;;;4.72;4.22;;;;;;;6.60;100.00;100915.25;4900922;29;20395;-78
2023/04/02 02:29:59;;;;;;;5.30;4.15;;;;;;;6.59;100.00;100914.38;4888251;29;20067;-78
2023/04/02 02:32:28;;;;;;;3.53;2.90;;;;;;;6.55;100.00;100912.81;4902160;29;20127;-77
2023/04/02 02:35:14;;;;;;;3.80;3.45;;;;;;;6.56;100.00;100922.72;4915398;29;20032;-78
2023/04/02 02:37:44;;;;;;;3.95;3.55;;;;;;;6.52;100.00;100932.03;4931355;29;20035;-78
2023/04/02 02:40:20;;;;;;;4.13;3.17;;;;;;;6.53;100.00;100941.09;4914839;29;20072;-78
2023/04/02 02:42:56;;;;;;;12.95;4.22;;;;;;;6.42;100.00;100929.00;4897412;29;20035;-78
2023/04/02 02:45:26;;;;;;;5.97;4.70;;;;;;;6.41;100.00;100926.38;4876247;29;20061;-78
2023/04/02 02:47:54;;;;;;;5.72;4.03;;;;;;;6.24;100.00;100919.25;4910129;29;20087;-78
2023/04/02 02:50:23;;;;;;;5.97;5.10;;;;;;;6.37;100.00;100955.59;4879233;29;20060;-78
2023/04/02 02:52:56;;;;;;;6.15;3.20;;;;;;;6.32;100.00;100967.72;4889757;29;20163;-78
2023/04/02 02:55:26;;;;;;;3.85;3.45;;;;;;;6.44;100.00;100964.25;4884625;29;20047;-79
2023/04/02 02:58:01;;;;;;;7.30;4.63;;;;;;;6.50;100.00;100966.63;4918612;29;20040;-78
2023/04/02 03:00:27;;;;;;;5.75;4.45;;;;;;;6.41;100.00;100972.59;4904573;29;20032;-78
2023/04/02 03:02:55;;;;;;;7.85;4.57;;;;;;;6.34;100.00;100963.94;4928557;29;20103;-78
2023/04/02 03:05:23;;;;;;;8.52;5.72;;;;;;;6.31;100.00;100990.44;4898720;29;20051;-78
2023/04/02 03:07:52;;;;;;;8.48;5.28;;;;;;;6.25;100.00;100992.56;4908591;29;20092;-79
2023/04/02 03:10:21;;;;;;;6.88;4.55;;;;;;;6.29;100.00;100987.81;4921601;29;20034;-82
2023/04/02 03:12:59;;;;;;;8.02;4.72;;;;;;;6.18;100.00;101006.59;4890015;29;20043;-78
2023/04/02 03:15:36;;;;;;;8.85;5.40;;;;;;;6.30;100.00;101016.75;4915044;29;20127;-78
2023/04/02 03:18:13;;;;;;;9.20;5.65;;;;;;;6.20;100.00;101013.72;4899534;29;20074;-78
2023/04/02 03:20:47;;;;;;;6.47;4.88;;;;;;;6.41;100.00;101003.41;4904292;29;20042;-80
2023/04/02 03:23:29;;;;;;;8.18;5.88;;;;;;;6.18;100.00;101015.66;4892299;29;20039;-80
2023/04/02 03:26:07;;;;;;;7.05;5.80;;;;;;;6.22;100.00;101021.78;4903176;29;20028;-77
2023/04/02 03:28:38;;;;;;;8.82;5.75;;;;;;;6.25;100.00;101030.63;4929141;29;20044;-78
2023/04/02 03:31:25;;;;;;;11.35;5.95;;;;;;;6.11;100.00;101032.41;4899553;29;20480;-78
2023/04/02 03:33:56;;;;;;;7.85;5.75;;;;;;;6.14;100.00;101041.25;4898755;29;20036;-80
2023/04/02 03:36:30;;;;;;;10.07;5.85;;;;;;;6.19;100.00;101047.28;4929677;29;20028;-79
2023/04/02 03:39:16;;;;;;;6.45;5.53;;;;;;;5.97;100.00;101063.97;4919343;29;20036;-80
2023/04/02 03:41:57;;;;;;;7.25;5.25;;;;;;;6.18;100.00;101061.88;4901988;29;20039;-79
2023/04/02 03:44:29;;;;;;;7.45;5.47;;;;;;;6.07;100.00;101069.75;4869111;29;20036;-79
2023/04/02 03:47:00;;;;;;;11.40;5.38;;;;;;;6.03;100.00;101073.59;4933529;29;20492;-79
2023/04/02 03:49:42;;;;;;;10.93;5.97;;;;;;;6.20;100.00;101081.69;4916071;29;20392;-79
2023/04/02 03:52:11;;;;;;;10.60;6.20;;;;;;;6.05;100.00;101085.25;4887627;29;20051;-79
2023/04/02 03:54:38;;;;;;;9.52;6.30;;;;;;;6.14;100.00;101086.59;4886943;29;20107;-80
2023/04/02 03:57:10;;;;;;;7.75;4.93;;;;;;;6.18;100.00;101099.94;4904055;29;20480;-79
2023/04/02 03:59:43;;;;;;;9.02;6.63;;;;;;;6.15;100.00;101110.97;4904806;29;20038;-81
2023/04/02 04:02:35;;;;;;;8.70;6.10;;;;;;;6.06;100.00;101112.34;4916672;29;20039;-80
2023/04/02 04:05:03;;;;;;;8.27;5.03;;;;;;;5.98;100.00;101120.06;4920588;29;20152;-80
2023/04/02 04:07:37;;;;;;;11.18;6.22;;;;;;;5.89;100.00;101115.13;4931388;29;20055;-80
2023/04/02 04:10:05;;;;;;;8.95;5.18;;;;;;;5.95;100.00;101116.59;4918210;29;20142;-79
2023/04/02 04:12:39;;;;;;;10.93;6.35;;;;;;;5.77;100.00;101099.47;4917991;29;20075;-80
2023/04/02 04:15:25;;;;;;;8.05;5.70;;;;;;;5.90;100.00;101130.44;4895166;29;20070;-80
2023/04/02 04:18:18;;;;;;;8.93;6.70;;;;;;;5.95;100.00;101141.97;4937654;29;20517;-79
2023/04/02 04:20:55;;;;;;;10.27;6.03;;;;;;;6.02;100.00;101156.13;4895967;29;20495;-79
2023/04/02 04:23:30;;;;;;;10.38;6.35;;;;;;;5.88;100.00;101154.09;4903026;29;20040;-81
2023/04/02 04:26:08;;;;;;;7.47;5.43;;;;;;;5.87;100.00;101157.78;4906637;29;20500;-80
2023/04/02 04:28:48;;;;;;;8.15;6.10;;;;;;;5.89;100.00;101167.63;4917051;29;20135;-80
2023/04/02 04:31:29;;;;;;;9.23;6.93;;;;;;;5.88;100.00;101159.53;4884378;29;20036;-80
2023/04/02 04:34:04;;;;;;;12.02;8.27;;;;;;;5.89;100.00;101162.19;4906808;29;20380;-80
2023/04/02 04:36:35;;;;;;;15.50;8.88;;;;;;;5.76;100.00;101169.25;4885042;29;20516;-81
2023/04/02 04:39:13;;;;;;;16.42;8.98;;;;;;;5.74;100.00;101164.84;4880883;29;20077;-80
2023/04/02 04:41:41;;;;;;;11.65;6.78;;;;;;;5.85;100.00;101184.16;4925689;29;20035;-80
2023/04/02 04:44:39;;;;;;;14.02;8.27;;;;;;;5.62;100.00;101197.13;4914723;29;20043;-80
2023/04/02 04:47:19;;;;;;;14.10;7.82;;;;;;;5.81;100.00;101191.59;4918383;29;20432;-80
2023/04/02 04:49:51;;;;;;;14.27;7.45;;;;;;;5.83;100.00;101215.97;4912070;29;20029;-80
2023/04/02 04:52:21;;;;;;;15.45;7.63;;;;;;;5.77;100.00;101217.19;4915456;29;20064;-80
2023/04/02 04:54:47;;;;;;;10.45;7.20;;;;;;;5.60;100.00;101222.63;4917383;29;20036;-80
2023/04/02 04:57:29;;;;;;;9.75;6.95;;;;;;;5.75;100.00;101231.81;4886252;29;20092;-80
2023/04/02 05:00:19;;;;;;;12.07;6.82;;;;;;;5.72;100.00;101238.28;4880718;29;20726;-80
2023/04/02 05:02:56;;;;;;;11.48;7.25;;;;;;;5.75;100.00;101231.81;4926823;29;20492;-80
2023/04/02 05:05:30;;;;;;;12.05;7.00;;;;;;;5.84;100.00;101237.63;4914033;29;20493;-80
2023/04/02 05:08:03;;;;;;;11.85;6.82;;;;;;;5.52;100.00;101244.75;4897944;29;20041;-80
2023/04/02 05:11:02;;;;;;;12.73;6.72;;;;;;;5.62;100.00;101247.88;4920033;29;20043;-80
2023/04/02 05:13:35;;;;;;;9.18;6.03;;;;;;;5.50;100.00;101252.97;4913224;29;20100;-80
2023/04/02 05:16:16;;;;;;;19.40;6.93;;;;;;;5.56;100.00;101259.94;4897990;29;20400;-80
2023/04/02 05:19:43;;;;;;;12.45;7.90;;;;;;;5.46;100.00;101270.41;4924492;29;20168;-80
2023/04/02 05:22:27;;;;;;;12.80;7.20;;;;;;;5.55;100.00;101277.19;4860178;29;20070;-81
2023/04/02 05:25:17;;;;;;;14.70;7.65;;;;;;;5.42;100.00;101279.66;4916810;29;20104;-81
2023/04/02 05:27:52;;;;;;;12.07;7.70;;;;;;;5.49;100.00;101288.34;4929813;29;20472;-80
2023/04/02 05:30:23;;;;;;;17.33;7.65;;;;;;;5.44;100.00;101287.72;4903337;29;20043;-80
2023/04/02 05:33:03;;;;;;;14.95;6.78;;;;;;;5.40;100.00;101297.00;4917293;29;20079;-81
2023/04/02 05:35:35;;;;;;;16.08;6.22;;;;;;;5.31;100.00;101296.50;4916792;29;20038;-80
2023/04/02 05:38:01;;;;;;;10.95;4.95;;;;;;;5.30;100.00;101311.03;4909185;29;20506;-80
2023/04/02 05:40:41;;;;;;;7.20;4.45;;;;;;;5.30;100.00;101305.59;4876183;29;20539;-80
2023/04/02 05:43:16;;;;;;;4.90;4.30;;;;;;;5.30;100.00;101316.44;4900561;29;20107;-80
2023/04/02 05:45:44;;;;;;;7.05;4.35;;;;;;;5.31;100.00;101320.94;4900680;29;20404;-80
2023/04/02 05:48:26;;;;;;;6.55;4.72;;;;;;;5.32;100.00;101322.69;4917325;29;20040;-80
2023/04/02 05:50:55;;;;;;;9.30;4.35;;;;;;;5.39;100.00;101334.09;4899205;29;20028;-80
2023/04/02 05:53:39;;;;;;;9.80;4.53;;;;;;;5.29;100.00;101325.53;4915665;29;20036;-79
2023/04/02 05:56:25;;;;;;;6.25;4.22;;;;;;;5.40;100.00;101340.44;4913471;29;20047;-80
2023/04/02 05:59:11;;;;;;;13.77;5.38;;;;;;;5.43;100.00;101341.16;4905878;29;20479;-81
2023/04/02 06:02:01;;;;;;;6.90;4.93;;;;;;;5.42;100.00;101336.69;4903117;29;20036;-80
2023/04/02 06:04:40;;;;;;;13.52;5.75;;;;;;;5.40;100.00;101349.47;4929574;29;20046;-80
2023/04/02 06:07:14;;;;;;;9.13;5.93;;;;;;;5.58;100.00;101366.66;4915047;29;20452;-80
2023/04/02 06:09:45;;;;;;;13.95;5.88;;;;;;;5.47;100.00;101369.91;4917374;29;20036;-80
2023/04/02 06:12:27;;;;;;;16.42;5.80;;;;;;;5.53;100.00;101376.88;4900482;29;20525;-81
2023/04/02 06:14:53;;;;;;;7.60;5.35;;;;;;;5.62;100.00;101378.25;4900138;29;20032;-81
2023/04/02 06:17:20;;;;;;;11.43;5.97;;;;;;;5.59;100.00;101392.88;4883536;29;20443;-80
2023/04/02 06:19:46;;;;;;;14.60;6.10;;;;;;;5.27;100.00;101392.63;4899338;29;20044;-81
2023/04/02 06:22:35;;;;;;;15.13;5.78;;;;;;;5.28;100.00;101390.78;4895875;29;20084;-79
2023/04/02 06:25:25;;;;;;;13.73;6.53;;;;;;;5.25;100.00;101408.09;4899071;29;20147;-80
2023/04/02 06:27:55;;;;;;;8.93;5.30;;;;;;;5.22;100.00;101413.69;4882891;29;20028;-81
2023/04/02 06:30:29;;;;;;;11.23;4.68;;;;;;;5.26;100.00;101414.41;4914941;29;20152;-80
2023/04/02 06:32:55;;;;;;;12.35;4.78;;;;;;;5.26;100.00;101423.44;4928847;29;20480;-80
2023/04/02 06:35:21;;;;;;;6.07;4.65;;;;;;;5.22;100.00;101423.66;4877301;29;20091;-80
2023/04/02 06:37:49;;;;;;;8.13;4.20;;;;;;;5.17;100.00;101425.72;4897526;29;20118;-81
2023/04/02 06:40:47;;;;;;;7.78;3.80;;;;;;;5.17;100.00;101437.44;4901869;29;20036;-79
2023/04/02 06:43:17;;;;;;;13.07;5.00;;;;;;;5.17;100.00;101450.16;4902732;29;20048;-79
2023/04/02 06:45:48;;;;;;;9.50;5.20;;;;;;;5.29;100.00;101449.56;4919689;29;20048;-80
2023/04/02 06:48:16;;;;;;;9.70;4.43;;;;;;;5.25;100.00;101464.25;4887237;29;20032;-80
2023/04/02 06:50:54;;;;;;;9.70;5.00;;;;;;;5.30;100.00;101451.34;4899467;29;20035;-80
2023/04/02 06:53:24;;;;;;;8.48;4.45;;;;;;;5.12;100.00;101469.38;4896525;29;20036;-80
2023/04/02 06:56:02;;;;;;;8.05;3.75;;;;;;;5.09;100.00;101475.78;4898447;29;20488;-79
2023/04/02 06:58:27;;;;;;;9.23;3.95;;;;;;;5.23;100.00;101490.56;4906607;29;20035;-79
2023/04/02 07:00:53;;;;;;;14.70;4.97;;;;;;;5.14;100.00;101489.16;4897052;29;20040;-80
2023/04/02 07:03:27;;;;;;;6.43;3.35;;;;;;;5.40;100.00;101503.38;4927462;29;20043;-79
2023/04/02 07:05:53;;;;;;;7.30;4.05;;;;;;;5.28;100.00;101502.97;4894781;29;20083;-79
2023/04/02 07:08:19;;;;;;;12.40;4.38;;;;;;;5.26;100.00;101513.03;4904591;29;20079;-79
2023/04/02 07:10:45;;;;;;;8.70;3.70;;;;;;;5.22;100.00;101511.41;4902071;29;20055;-80
2023/04/02 07:13:19;;;;;;;7.88;4.20;;;;;;;5.24;100.00;101522.19;4883324;29;20036;-81
2023/04/02 07:15:47;;;;;;;6.88;3.47;;;;;;;5.23;100.00;101529.47;4903754;29;20035;-80
2023/04/02 07:18:27;;;;;;;13.02;4.22;;;;;;;5.15;100.00;101518.94;4899471;29;20041;-81
2023/04/02 07:20:53;;;;;;;13.40;4.38;;;;;;;5.16;100.00;101525.25;4885829;29;20446;-80
2023/04/02 07:23:20;;;;;;;8.05;3.97;;;;;;;5.30;100.00;101539.09;4898859;29;20160;-80
2023/04/02 07:25:50;;;;;;;4.82;2.85;;;;;;;5.24;100.00;101541.19;4912072;29;20028;-80
2023/04/02 07:28:15;;;;;;;5.50;2.97;;;;;;;5.11;100.00;101538.16;4882027;29;20088;-80
2023/04/02 07:30:42;;;;;;;6.93;3.75;;;;;;;5.17;100.00;101551.47;4904043;29;20036;-79
2023/04/02 07:33:12;;;;;;;10.45;3.10;;;;;;;5.13;100.00;101538.97;4931272;29;20562;-79
2023/04/02 07:35:38;;;;;;;13.25;3.17;;;;;;;5.26;100.00;101556.47;4898243;29;20074;-79
2023/04/02 07:38:03;;;;;;;7.10;2.28;;;;;;;5.14;100.00;101570.59;4869478;29;20039;-81
2023/04/02 07:40:28;;;;;;;7.40;2.97;;;;;;;5.13;100.00;101568.81;4901531;29;20048;-80
2023/04/02 07:42:54;;;;;;;10.10;2.60;;;;;;;5.41;100.00;101573.91;4899398;29;20449;-79
2023/04/02 07:45:19;;;;;;;10.18;3.13;;;;;;;5.20;100.00;101574.84;4911059;28;20061;-79
2023/04/02 07:47:45;;;;;;;9.43;3.28;;;;;;;5.26;100.00;101591.78;4852148;29;20174;-78
2023/04/02 07:50:10;;;;;;;2.85;1.67;;;;;;;5.40;100.00;101582.13;4866973;29;20116;-78
2023/04/02 07:52:42;;;;;;;8.98;2.55;;;;;;;5.41;100.00;101600.16;4884068;29;20692;-79
2023/04/02 07:55:13;;;;;;;7.88;2.28;;;;;;;5.18;100.00;101609.34;4895534;29;20407;-78
2023/04/02 07:57:54;;;;;;;5.97;2.22;;;;;;;5.40;100.00;101609.28;4910863;29;20136;-77
2023/04/02 08:00:21;;;;;;;6.75;2.30;;;;;;;5.37;100.00;101606.69;4885497;29;20040;-78
2023/04/02 08:02:47;;;;;;;8.65;2.60;;;;;;;5.43;100.00;101607.28;4912153;29;20060;-78
2023/04/02 08:05:13;;;;;;;10.20;2.22;;;;;;;5.58;100.00;101621.13;4849405;29;20075;-78
2023/04/02 08:07:40;;;;;;;5.75;1.90;;;;;;;5.64;100.00;101624.44;4876652;29;20543;-78
2023/04/02 08:10:07;;;;;;;5.00;1.90;;;;;;;5.47;100.00;101619.75;4897552;29;20033;-78
2023/04/02 08:12:32;;;;;;;5.93;2.00;;;;;;;5.32;100.00;101618.63;4896105;29;20404;-78
2023/04/02 08:14:58;;;;;;;5.43;2.10;;;;;;;5.48;100.00;101645.97;4868211;29;20048;-77
2023/04/02 08:17:23;;;;;;;4.68;1.60;;;;;;;5.58;100.00;101654.59;4868169;29;20489;-77
2023/04/02 08:19:49;;;;;;;5.57;1.88;;;;;;;5.59;100.00;101647.31;4893803;29;20051;-77
2023/04/02 08:22:15;;;;;;;6.90;2.33;;;;;;;5.23;100.00;101643.50;4872601;29;20397;-77
2023/04/02 08:24:40;;;;;;;3.30;1.77;;;;;;;5.36;100.00;101672.81;4896335;29;20032;-78
2023/04/02 08:27:06;;;;;;;10.68;2.15;;;;;;;5.19;100.00;101673.56;4883935;29;20037;-77
2023/04/02 08:29:32;;;;;;;8.75;2.72;;;;;;;5.31;100.00;101684.75;4848731;29;20370;-78
2023/04/02 08:31:58;;;;;;;7.35;2.35;;;;;;;5.24;100.00;101676.94;4902636;29;20103;-78
2023/04/02 08:34:24;;;;;;;5.18;1.70;;;;;;;5.34;100.00;101695.50;4910872;29;20093;-78
2023/04/02 08:36:49;;;;;;;5.95;2.08;;;;;;;5.30;100.00;101696.56;4907026;29;20032;-78
2023/04/02 08:39:15;;;;;;;6.05;2.25;;;;;;;5.44;100.00;101698.66;4912318;29;20040;-78
2023/04/02 08:41:47;;;;;;;3.35;1.60;;;;;;;5.68;100.00;101701.25;4899462;29;20507;-76
2023/04/02 08:44:31;;;;;;;4.03;1.55;;;;;;;5.45;100.00;101705.88;4891065;29;22186;-77
2023/04/02 08:47:02;;;;;;;8.00;1.77;;;;;;;5.49;100.00;101715.66;4897619;29;20040;-77
2023/04/02 08:49:41;;;;;;;6.40;1.48;;;;;;;5.42;100.00;101715.97;4895520;29;20084;-78
2023/04/02 08:52:22;;;;;;;2.90;1.80;;;;;;;5.48;100.00;101707.56;4892266;29;20036;-78
2023/04/02 08:54:49;;;;;;;7.88;2.03;;;;;;;5.67;100.00;101727.53;4898700;29;20032;-77
2023/04/02 08:57:23;;;;;;;3.85;1.58;;;;;;;5.70;100.00;101740.97;4892122;29;20047;-77
2023/04/02 08:59:57;;;;;;;3.33;1.35;;;;;;;5.74;100.00;101738.13;4882775;29;20131;-77
2023/04/02 09:02:45;;;;;;;6.20;1.67;;;;;;;5.45;100.00;101746.59;4904946;29;20040;-77
2023/04/02 09:05:27;;;;;;;4.38;1.63;;;;;;;5.46;100.00;101747.47;4883481;29;20032;-78
2023/04/02 09:07:57;;;;;;;6.68;1.77;;;;;;;5.61;100.00;101754.09;4880544;29;20036;-78
2023/04/02 09:10:32;;;;;;;7.32;2.05;;;;;;;5.67;100.00;101756.53;4881627;29;20115;-77
2023/04/02 09:12:59;;;;;;;5.60;1.65;;;;;;;5.70;100.00;101757.28;4911982;29;20060;-79
2023/04/02 09:15:33;;;;;;;5.15;1.40;;;;;;;5.74;100.00;101754.41;4876775;29;20040;-77
2023/04/02 09:18:13;;;;;;;4.22;1.33;;;;;;;5.65;100.00;101770.19;4918580;29;20088;-77
2023/04/02 09:20:39;;;;;;;6.50;1.52;;;;;;;5.93;100.00;101755.38;4914659;29;20056;-77
2023/04/02 09:23:04;;;;;;;7.20;1.70;;;;;;;6.14;100.00;101775.28;4906382;29;20536;-77
2023/04/02 09:25:31;;;;;;;8.40;1.48;;;;;;;5.93;100.00;101755.38;4925538;29;20032;-78
2023/04/02 09:28:00;;;;;;;4.65;1.52;;;;;;;6.14;100.00;101783.44;4905368;29;20400;-77
2023/04/02 09:30:31;;;;;;;3.45;1.40;;;;;;;6.21;100.00;101786.75;4915727;29;20028;-77
2023/04/02 09:33:08;;;;;;;4.53;1.15;;;;;;;6.16;100.00;101786.97;4896961;29;20501;-77
2023/04/02 09:35:35;;;;;;;4.95;1.50;;;;;;;6.28;100.00;101798.25;4897950;29;20108;-77
2023/04/02 09:38:22;;;;;;;6.38;1.48;;;;;;;6.19;100.00;101796.84;4897834;29;20040;-77
2023/04/02 09:40:54;;;;;;;2.20;1.30;;;;;;;6.00;100.00;101808.56;4895921;29;20412;-78
2023/04/02 09:43:22;;;;;;;3.45;1.60;;;;;;;6.17;100.00;101809.63;4915344;29;20043;-78
2023/04/02 09:46:25;;;;;;;4.40;1.10;;;;;;;6.40;100.00;101812.16;4891668;29;20044;-77
2023/04/02 09:48:54;;;;;;;3.92;1.50;;;;;;;6.24;100.00;101820.13;4924810;29;20111;-77
2023/04/02 09:51:24;;;;;;;2.10;1.30;;;;;;;6.54;100.00;101821.53;4911913;29;20055;-78
2023/04/02 09:54:03;;;;;;;4.25;1.40;;;;;;;6.32;100.00;101818.91;4915691;29;20047;-78
2023/04/02 09:56:34;;;;;;;3.08;1.20;;;;;;;6.30;100.00;101835.31;4892947;29;20040;-78
2023/04/02 09:59:14;;;;;;;4.15;1.50;;;;;;;6.28;100.00;101837.22;4931041;29;20372;-77
2023/04/02 10:01:59;;;;;;;3.53;1.20;;;;;;;6.40;100.00;101852.09;4910798;29;20038;-77
2023/04/02 10:04:43;;;;;;;3.80;0.95;;;;;;;6.32;100.00;101860.59;4927401;29;20032;-79
2023/04/02 10:07:38;;;;;;;2.95;1.33;;;;;;;6.38;100.00;101854.88;4918815;29;20396;-79
2023/04/02 10:10:16;;;;;;;2.85;1.33;;;;;;;6.53;100.00;101866.91;4899637;29;20028;-78
2023/04/02 10:12:44;;;;;;;8.30;1.35;;;;;;;6.25;100.00;101865.44;4897001;29;20429;-77
2023/04/02 10:15:21;;;;;;;2.28;1.00;;;;;;;6.24;100.00;101869.09;4914367;29;20028;-77
2023/04/02 10:17:58;;;;;;;7.30;1.42;;;;;;;6.53;100.00;101866.03;4915897;29;20404;-77
2023/04/02 10:20:26;;;;;;;3.58;1.20;;;;;;;6.44;100.00;101879.09;4919951;29;20373;-75
2023/04/02 10:22:52;;;;;;;7.38;1.13;;;;;;;6.35;100.00;101874.06;4897131;29;20064;-75
2023/04/02 10:25:23;;;;;;;7.20;1.35;;;;;;;6.27;100.00;101886.25;4930228;29;20068;-76
2023/04/02 10:28:10;;;;;;;4.82;1.23;;;;;;;6.24;100.00;101900.84;4882247;29;20559;-76
2023/04/02 10:30:56;;;;;;;4.88;1.45;;;;;;;6.20;100.00;101910.09;4902155;29;20033;-75
2023/04/02 10:33:46;;;;;;;2.35;0.90;;;;;;;6.21;100.00;101915.44;4909764;29;20484;-76
2023/04/02 10:36:39;;;;;;;3.38;1.60;;;;;;;6.41;100.00;101902.81;4913696;29;20432;-76
2023/04/02 10:39:14;;;;;;;2.45;1.05;;;;;;;6.40;100.00;101904.66;4899548;29;20036;-75
2023/04/02 10:42:16;;;;;;;4.80;1.27;;;;;;;6.53;100.00;101907.72;4928392;29;20028;-74
2023/04/02 10:44:58;;;;;;;4.07;1.40;;;;;;;6.46;100.00;101906.22;4895974;29;20063;-75
2023/04/02 10:47:34;;;;;;;5.72;1.23;;;;;;;6.64;100.00;101907.22;4912979;29;20039;-75
2023/04/02 10:50:43;;;;;;;3.97;1.30;;;;;;;6.47;100.00;101912.53;4904361;29;20106;-76
2023/04/02 10:53:19;;;;;;;2.95;1.10;;;;;;;6.63;100.00;101919.06;4929779;29;20518;-75
2023/04/02 10:55:50;;;;;;;2.63;1.27;;;;;;;6.69;100.00;101917.88;4920575;29;20118;-75
2023/04/02 10:58:28;;;;;;;7.53;1.63;;;;;;;6.75;100.00;101926.66;4907384;29;20036;-76
2023/04/02 11:01:17;;;;;;;4.93;1.50;;;;;;;6.70;100.00;101923.25;4912588;29;20096;-75
2023/04/02 11:03:53;;;;;;;3.70;1.00;;;;;;;6.84;100.00;101925.38;4903338;29;20118;-75
2023/04/02 11:06:24;;;;;;;4.78;1.48;;;;;;;6.92;100.00;101939.50;4895877;29;20087;-74
2023/04/02 11:08:57;;;;;;;5.57;1.50;;;;;;;6.96;100.00;101940.22;4920450;29;20036;-75
2023/04/02 11:11:28;;;;;;;2.00;1.25;;;;;;;6.79;100.00;101939.19;4921684;29;20036;-75
2023/04/02 11:14:18;;;;;;;7.03;1.40;;;;;;;6.80;100.00;101948.22;4936364;29;20079;-74
2023/04/02 11:16:44;;;;;;;4.25;1.65;;;;;;;6.95;100.00;101947.53;4921755;29;20059;-76
2023/04/02 11:19:15;;;;;;;3.10;1.20;;;;;;;7.21;100.00;101961.75;4918489;29;20078;-76
2023/04/02 11:21:54;;;;;;;5.20;1.13;;;;;;;7.02;100.00;101956.28;4916600;29;20071;-76
2023/04/02 11:24:29;;;;;;;3.72;1.25;;;;;;;7.01;100.00;101962.69;4933491;29;20047;-77
2023/04/02 11:27:16;;;;;;;3.58;1.10;;;;;;;7.00;100.00;101958.19;4918589;29;20043;-75
2023/04/02 11:30:16;;;;;;;2.95;1.40;;;;;;;7.28;100.00;101963.25;4921780;29;20028;-78
2023/04/02 11:32:46;;;;;;;4.20;1.30;;;;;;;7.63;100.00;101971.56;4919728;29;20067;-77
2023/04/02 11:35:30;;;;;;;5.97;1.60;;;;;;;7.49;100.00;101977.69;4903111;29;20043;-77
2023/04/02 11:38:02;;;;;;;2.20;1.20;;;;;;;7.17;100.00;101973.75;4919743;29;20044;-78
2023/04/02 11:40:46;;;;;;;4.47;1.33;;;;;;;7.04;100.00;101995.22;4908087;29;20040;-77
2023/04/02 11:43:34;;;;;;;2.85;1.33;;;;;;;7.04;100.00;101988.91;4899532;29;20044;-77
2023/04/02 11:46:16;;;;;;;5.47;1.38;;;;;;;7.10;100.00;102005.84;4910160;29;20044;-77
2023/04/02 11:48:42;;;;;;;6.18;1.20;;;;;;;7.18;100.00;101997.28;4935825;29;20502;-77
2023/04/02 11:51:21;;;;;;;1.88;1.00;;;;;;;7.30;100.00;102002.19;4898033;29;20036;-79
2023/04/02 11:53:48;;;;;;;4.47;1.45;;;;;;;7.25;100.00;102003.38;4919527;29;20040;-77
2023/04/02 11:56:56;;;;;;;6.97;1.38;;;;;;;7.50;100.00;102016.72;4923578;29;20039;-78
2023/04/02 11:59:30;;;;;;;2.25;1.33;;;;;;;7.39;100.00;102016.31;4910681;29;20047;-79
2023/04/02 12:02:09;;;;;;;3.17;1.35;;;;;;;7.39;100.00;102027.22;4918240;29;20505;-79